SOD U16-Group 3 - GS
Results

SOD U16-Group 3

Jury
TD Crossan Rob CAN
Referee TBA CAN
Chief of Race Crossan Rob CAN
Other Workers
Start Ref Slocombe Al CAN
Finish Ref Buzz CAN
Race Admin Wait CAN
Chief of Timing Crawford Rob CAN
Technical Data
Course Name
Start 452
Finish 230
Vertical Drop
Length
Homologation
1st Run 2nd run
Course Setter Kovich Mark CAN Lat Rene CAN
Number of Gates 21/20 21/20
Homologation
Forerunner 1 Weider 1 Jozo CAN Weider 1 Jozo CAN
Forerunner 2 Weider 2 Jozo CAN Weider 2 Jozo CAN
Forerunner 3 Weider 3 Jozo CAN Weider 3 Jozo CAN
Forerunner 4

Applied Penality: 410.78

Weather: CLOUDY WITH SUN

Snow:SOFT

Temperature Start: 3 Temperature Finish: 5

F:980

Rank Card Bib Name Club YOB Category 1st Run 2nd run Total Time Points
1 77306 2 O'BOYLE KELLY Chloe BATAW 02 U16 33.75 35.70 1:09.45 0
2 74509 38 BAWDEN Carolyn OSLER 02 U16 35.21 34.26 1:09.47 0.28
3 74552 34 BLAIR Vanessa GEORG 02 U16 35.01 34.59 1:09.60 2.12
4 75134 19 KARNAY Caroline GEORG 02 U16 35.07 34.71 1:09.78 4.66
5 75736 23 STEWART Andrea CRAIG 01 U18 35.99 35.31 1:11.30 26.11
6 77254 22 LIU Reena BATAW 02 U16 36.04 36.47 1:12.51 43.18
7 74664 12 CHALMERS Kaitlyn CRAIG 01 U18 36.73 36.52 1:13.25 53.62
8 75801 29 TKACHUK Georgia CRAIG 01 U18 37.31 36.24 1:13.55 57.85
9 71689 25 MUIRHEAD Sophie CRAIG 01 U18 36.59 37.11 1:13.70 59.97
10 75383 39 MOORE Emma CRAIG 01 U18 37.47 36.31 1:13.78 61.1
11 75723 4 STANTON Allie OSLER 02 U16 36.57 37.34 1:13.91 62.93
12 74489 26 BAMBER Anna GEORG 02 U16 37.34 36.60 1:13.94 63.36
13 75904 9 WHITE Sarah GEORG 02 U16 36.85 37.91 1:14.76 74.93
14 77251 6 LING Siena JOZOW 02 U16 37.40 37.77 1:15.17 80.71
15 75495 33 OTTON Becky GEORG 02 U16 39.01 37.37 1:16.38 97.79
16 88188 35 FESTA Isabella JOZOW 02 U16 38.45 38.13 1:16.58 100.61
17 76776 8 MARGIE Emma HORSE 02 U16 38.04 38.55 1:16.59 100.75
18 77307 17 O'BOYLE KELLY Hannah BATAW 02 U16 38.80 38.21 1:17.01 106.68
19 76646 24 ANDERSONS Elizabeth HORSE 02 U16 37.68 39.34 1:17.02 106.82
20 74603 31 BROWN Madeleine GEORG 02 U16 39.50 38.07 1:17.57 114.58
21 75824 40 TULCHINSKY Noa GEORG 02 U16 39.85 38.02 1:17.87 118.81
22 74812 7 DUBCZAK Adelle GEORG 02 U16 39.10 39.03 1:18.13 122.48
23 75672 30 SHAW-LITZGUS Simone GEORG 02 U16 38.90 39.24 1:18.14 122.62
24 78613 42 WALLGREN Robyn JOZOW 02 U16 39.29 38.90 1:18.19 123.33
25 75621 41 ROSMUS Georgia GEORG 02 U16 39.97 38.25 1:18.22 123.75
26 76780 15 MARTSCHENKO Taissa HORSE 02 U16 39.02 39.29 1:18.31 125.02
27 78247 13 BARKER Julia GEORG 02 U16 39.25 39.42 1:18.67 130.1
27 76857 37 WHITE Kathleen GEORG 02 U16 40.01 38.66 1:18.67 130.1
29 77274 3 MCELLIGOTT Phoebe CRAIG 01 U18 39.35 39.79 1:19.14 136.73
30 75649 14 SCHEIFELE Alexandra GEORG 02 U16 39.84 39.68 1:19.52 142.1
31 77126 1 CHALK Maggie BATAW 02 U16 39.23 40.54 1:19.77 145.62
32 78141 32 ASTON Mya JOZOW 02 U16 39.80 40.20 1:20.00 148.87
33 74626 27 BURROWS Emily OSLER 02 U16 40.56 39.53 1:20.09 150.14
34 78552 10 SANTINI Carla JOZOW 02 U16 40.54 39.85 1:20.39 154.37
35 82056 5 FORTIER Amelia CRAIG 01 U18 39.71 40.87 1:20.58 157.05
36 75034 20 HERMAN Sarah CRAIG 01 U18 40.56 40.98 1:21.54 170.6
37 78548 36 SALHANI Emma JOZOW 02 U16 41.89 40.84 1:22.73 187.39
38 75787 16 TERNER Jaiden GEORG 02 U16 42.90 41.84 1:24.74 215.76
39 76738 11 JONES Jennah HORSE 02 U16 38.33 48.38 1:26.71 243.55
999 77111 18 BRAY Annissa BATAW 02 U16 DNF 59.43 0
999 78623 21 WROBLEWSKI Olivia JOZOW 02 U16 DSQ - 20 40.21 0
999 74471 28 ARMSTRONG Chloe GEORG 02 U16 36.91 DNF 0
22/01/2017 / Blue Mountain / NAT17.5252